sensor_id;sensor_type;location;lat;lon;timestamp;temperature;humidity
11944;DHT22;6031;50.220;10.122;2023-02-15T00:01:46;0.00;99.90
11944;DHT22;6031;50.220;10.122;2023-02-15T00:04:17;0.00;99.90
11944;DHT22;6031;50.220;10.122;2023-02-15T00:06:43;0.00;99.90
11944;DHT22;6031;50.220;10.122;2023-02-15T00:09:09;0.00;99.90
11944;DHT22;6031;50.220;10.122;2023-02-15T00:11:35;0.00;99.90
11944;DHT22;6031;50.220;10.122;2023-02-15T00:14:20;-0.10;99.90
11944;DHT22;6031;50.220;10.122;2023-02-15T00:16:46;-0.10;99.90
11944;DHT22;6031;50.220;10.122;2023-02-15T00:19:15;-0.10;99.90
11944;DHT22;6031;50.220;10.122;2023-02-15T00:21:40;0.00;99.90
11944;DHT22;6031;50.220;10.122;2023-02-15T00:24:08;0.00;99.90
11944;DHT22;6031;50.220;10.122;2023-02-15T00:26:35;0.00;99.90
11944;DHT22;6031;50.220;10.122;2023-02-15T00:29:02;0.00;99.90
11944;DHT22;6031;50.220;10.122;2023-02-15T00:31:29;0.10;99.90
11944;DHT22;6031;50.220;10.122;2023-02-15T00:33:56;0.10;99.90
11944;DHT22;6031;50.220;10.122;2023-02-15T00:36:25;0.10;99.90
11944;DHT22;6031;50.220;10.122;2023-02-15T00:38:51;0.10;99.90
11944;DHT22;6031;50.220;10.122;2023-02-15T00:41:16;0.00;99.90
11944;DHT22;6031;50.220;10.122;2023-02-15T00:43:42;0.00;99.90
11944;DHT22;6031;50.220;10.122;2023-02-15T00:46:07;0.00;99.90
11944;DHT22;6031;50.220;10.122;2023-02-15T00:48:33;-0.10;99.90
11944;DHT22;6031;50.220;10.122;2023-02-15T00:50:59;-0.10;99.90
11944;DHT22;6031;50.220;10.122;2023-02-15T00:53:26;-0.10;99.90
11944;DHT22;6031;50.220;10.122;2023-02-15T00:55:52;-0.10;99.90
11944;DHT22;6031;50.220;10.122;2023-02-15T00:58:18;-0.10;99.90
11944;DHT22;6031;50.220;10.122;2023-02-15T01:00:45;-0.10;99.90
11944;DHT22;6031;50.220;10.122;2023-02-15T01:03:12;-0.20;99.90
11944;DHT22;6031;50.220;10.122;2023-02-15T01:05:38;-0.20;99.90
11944;DHT22;6031;50.220;10.122;2023-02-15T01:08:03;-0.10;99.90
11944;DHT22;6031;50.220;10.122;2023-02-15T01:10:29;-0.20;99.90
11944;DHT22;6031;50.220;10.122;2023-02-15T01:12:55;-0.20;99.90
11944;DHT22;6031;50.220;10.122;2023-02-15T01:15:22;-0.20;99.90
11944;DHT22;6031;50.220;10.122;2023-02-15T01:17:48;-0.10;99.90
11944;DHT22;6031;50.220;10.122;2023-02-15T01:20:27;0.00;99.90
11944;DHT22;6031;50.220;10.122;2023-02-15T01:22:54;0.00;99.90
11944;DHT22;6031;50.220;10.122;2023-02-15T01:25:21;0.00;99.90
11944;DHT22;6031;50.220;10.122;2023-02-15T01:27:47;0.00;99.90
11944;DHT22;6031;50.220;10.122;2023-02-15T01:30:13;-0.10;99.90
11944;DHT22;6031;50.220;10.122;2023-02-15T01:32:40;-0.10;99.90
11944;DHT22;6031;50.220;10.122;2023-02-15T01:35:06;-0.10;99.90
11944;DHT22;6031;50.220;10.122;2023-02-15T01:37:32;-0.10;99.90
11944;DHT22;6031;50.220;10.122;2023-02-15T01:39:58;0.00;99.90
11944;DHT22;6031;50.220;10.122;2023-02-15T01:42:26;0.00;99.90
11944;DHT22;6031;50.220;10.122;2023-02-15T01:44:59;0.00;99.90
11944;DHT22;6031;50.220;10.122;2023-02-15T01:47:39;0.00;99.90
11944;DHT22;6031;50.220;10.122;2023-02-15T01:52:40;0.00;99.90
11944;DHT22;6031;50.220;10.122;2023-02-15T01:55:07;0.00;99.90
11944;DHT22;6031;50.220;10.122;2023-02-15T01:57:33;0.00;99.90
11944;DHT22;6031;50.220;10.122;2023-02-15T02:00:01;0.00;99.90
11944;DHT22;6031;50.220;10.122;2023-02-15T02:02:28;0.10;99.90
11944;DHT22;6031;50.220;10.122;2023-02-15T02:05:03;0.00;99.90
11944;DHT22;6031;50.220;10.122;2023-02-15T02:07:38;-0.10;99.90
11944;DHT22;6031;50.220;10.122;2023-02-15T02:10:06;-0.10;99.90
11944;DHT22;6031;50.220;10.122;2023-02-15T02:12:33;-0.10;99.90
11944;DHT22;6031;50.220;10.122;2023-02-15T02:15:00;-0.10;99.90
11944;DHT22;6031;50.220;10.122;2023-02-15T02:20:43;0.00;99.90
11944;DHT22;6031;50.220;10.122;2023-02-15T02:23:27;0.00;99.90
11944;DHT22;6031;50.220;10.122;2023-02-15T02:37:48;-0.10;99.90
11944;DHT22;6031;50.220;10.122;2023-02-15T02:45:07;0.00;99.90
11944;DHT22;6031;50.220;10.122;2023-02-15T02:47:43;-0.10;99.90
11944;DHT22;6031;50.220;10.122;2023-02-15T02:50:14;0.00;99.90
11944;DHT22;6031;50.220;10.122;2023-02-15T02:52:46;-0.10;99.90
11944;DHT22;6031;50.220;10.122;2023-02-15T02:55:41;-0.10;99.90
11944;DHT22;6031;50.220;10.122;2023-02-15T02:58:21;-0.10;99.90
11944;DHT22;6031;50.220;10.122;2023-02-15T03:00:56;-0.10;99.90
11944;DHT22;6031;50.220;10.122;2023-02-15T03:03:38;0.00;99.90
11944;DHT22;6031;50.220;10.122;2023-02-15T03:06:18;-0.10;99.90
11944;DHT22;6031;50.220;10.122;2023-02-15T03:08:48;-0.10;99.90
11944;DHT22;6031;50.220;10.122;2023-02-15T03:11:16;-0.10;99.90
11944;DHT22;6031;50.220;10.122;2023-02-15T03:13:43;-0.10;99.90
11944;DHT22;6031;50.220;10.122;2023-02-15T03:16:09;-0.10;99.90
11944;DHT22;6031;50.220;10.122;2023-02-15T03:19:07;0.00;99.90
11944;DHT22;6031;50.220;10.122;2023-02-15T03:21:51;-0.10;99.90
11944;DHT22;6031;50.220;10.122;2023-02-15T03:25:04;-0.10;99.90
11944;DHT22;6031;50.220;10.122;2023-02-15T03:27:59;-0.20;99.90
11944;DHT22;6031;50.220;10.122;2023-02-15T03:30:27;-0.20;99.90
11944;DHT22;6031;50.220;10.122;2023-02-15T03:32:54;-0.10;99.90
11944;DHT22;6031;50.220;10.122;2023-02-15T03:35:23;-0.20;99.90
11944;DHT22;6031;50.220;10.122;2023-02-15T03:38:00;-0.20;99.90
11944;DHT22;6031;50.220;10.122;2023-02-15T03:40:47;-0.20;99.90
11944;DHT22;6031;50.220;10.122;2023-02-15T03:46:31;-0.20;99.90
11944;DHT22;6031;50.220;10.122;2023-02-15T03:49:13;-0.20;99.90
11944;DHT22;6031;50.220;10.122;2023-02-15T03:51:42;-0.20;99.90
11944;DHT22;6031;50.220;10.122;2023-02-15T03:54:13;-0.20;99.90
11944;DHT22;6031;50.220;10.122;2023-02-15T03:57:01;-0.30;99.90
11944;DHT22;6031;50.220;10.122;2023-02-15T03:59:45;-0.30;99.90
11944;DHT22;6031;50.220;10.122;2023-02-15T04:02:38;-0.30;99.90
11944;DHT22;6031;50.220;10.122;2023-02-15T04:05:05;-0.30;99.90
11944;DHT22;6031;50.220;10.122;2023-02-15T04:07:30;-0.30;99.90
11944;DHT22;6031;50.220;10.122;2023-02-15T04:09:56;-0.30;99.90
11944;DHT22;6031;50.220;10.122;2023-02-15T04:12:40;-0.20;99.90
11944;DHT22;6031;50.220;10.122;2023-02-15T04:15:06;-0.20;99.90
11944;DHT22;6031;50.220;10.122;2023-02-15T04:17:50;-0.20;99.90
11944;DHT22;6031;50.220;10.122;2023-02-15T04:20:16;-0.20;99.90
11944;DHT22;6031;50.220;10.122;2023-02-15T04:23:00;-0.30;99.90
11944;DHT22;6031;50.220;10.122;2023-02-15T04:25:44;-0.20;99.90
11944;DHT22;6031;50.220;10.122;2023-02-15T04:28:09;-0.20;99.90
11944;DHT22;6031;50.220;10.122;2023-02-15T04:30:35;-0.20;99.90
11944;DHT22;6031;50.220;10.122;2023-02-15T04:33:00;-0.20;99.90
11944;DHT22;6031;50.220;10.122;2023-02-15T04:35:26;-0.10;99.90
11944;DHT22;6031;50.220;10.122;2023-02-15T04:37:51;-0.10;99.90
11944;DHT22;6031;50.220;10.122;2023-02-15T04:40:17;-0.10;99.90
11944;DHT22;6031;50.220;10.122;2023-02-15T04:42:43;-0.20;99.90
11944;DHT22;6031;50.220;10.122;2023-02-15T04:45:08;-0.10;99.90
11944;DHT22;6031;50.220;10.122;2023-02-15T04:47:34;-0.10;99.90
11944;DHT22;6031;50.220;10.122;2023-02-15T04:50:00;-0.10;99.90
11944;DHT22;6031;50.220;10.122;2023-02-15T04:52:25;-0.10;99.90
11944;DHT22;6031;50.220;10.122;2023-02-15T04:54:51;-0.10;99.90
11944;DHT22;6031;50.220;10.122;2023-02-15T04:57:16;-0.10;99.90
11944;DHT22;6031;50.220;10.122;2023-02-15T04:59:42;-0.20;99.90
11944;DHT22;6031;50.220;10.122;2023-02-15T05:02:07;-0.30;99.90
11944;DHT22;6031;50.220;10.122;2023-02-15T05:04:34;-0.30;99.90
11944;DHT22;6031;50.220;10.122;2023-02-15T05:06:59;-0.20;99.90
11944;DHT22;6031;50.220;10.122;2023-02-15T05:09:25;-0.30;99.90
11944;DHT22;6031;50.220;10.122;2023-02-15T05:11:50;-0.40;99.90
11944;DHT22;6031;50.220;10.122;2023-02-15T05:14:16;-0.40;99.90
11944;DHT22;6031;50.220;10.122;2023-02-15T05:16:41;-0.40;99.90
11944;DHT22;6031;50.220;10.122;2023-02-15T05:19:07;-0.40;99.90
11944;DHT22;6031;50.220;10.122;2023-02-15T05:21:33;-0.30;99.90
11944;DHT22;6031;50.220;10.122;2023-02-15T05:23:59;-0.20;99.90
11944;DHT22;6031;50.220;10.122;2023-02-15T05:26:25;-0.30;99.90
11944;DHT22;6031;50.220;10.122;2023-02-15T05:29:09;-0.20;99.90
11944;DHT22;6031;50.220;10.122;2023-02-15T05:31:36;-0.10;99.90
11944;DHT22;6031;50.220;10.122;2023-02-15T05:34:02;-0.10;99.90
11944;DHT22;6031;50.220;10.122;2023-02-15T05:36:27;-0.10;99.90
11944;DHT22;6031;50.220;10.122;2023-02-15T05:38:54;-0.20;99.90
11944;DHT22;6031;50.220;10.122;2023-02-15T05:41:19;-0.10;99.90
11944;DHT22;6031;50.220;10.122;2023-02-15T05:43:45;-0.20;99.90
11944;DHT22;6031;50.220;10.122;2023-02-15T05:46:11;-0.20;99.90
11944;DHT22;6031;50.220;10.122;2023-02-15T05:48:37;-0.20;99.90
11944;DHT22;6031;50.220;10.122;2023-02-15T05:51:05;-0.20;99.90
11944;DHT22;6031;50.220;10.122;2023-02-15T05:53:32;-0.10;99.90
11944;DHT22;6031;50.220;10.122;2023-02-15T05:55:58;-0.10;99.90
11944;DHT22;6031;50.220;10.122;2023-02-15T05:58:29;-0.10;99.90
11944;DHT22;6031;50.220;10.122;2023-02-15T06:00:55;0.00;99.90
11944;DHT22;6031;50.220;10.122;2023-02-15T06:03:22;0.00;99.90
11944;DHT22;6031;50.220;10.122;2023-02-15T06:05:48;-0.10;99.90
11944;DHT22;6031;50.220;10.122;2023-02-15T06:08:13;-0.10;99.90
11944;DHT22;6031;50.220;10.122;2023-02-15T06:10:39;-0.20;99.90
11944;DHT22;6031;50.220;10.122;2023-02-15T06:13:05;-0.30;99.90
11944;DHT22;6031;50.220;10.122;2023-02-15T06:15:31;-0.30;99.90
11944;DHT22;6031;50.220;10.122;2023-02-15T06:17:57;-0.30;99.90
11944;DHT22;6031;50.220;10.122;2023-02-15T06:20:22;-0.30;99.90
11944;DHT22;6031;50.220;10.122;2023-02-15T06:22:48;-0.30;99.90
11944;DHT22;6031;50.220;10.122;2023-02-15T06:25:13;-0.20;99.90
11944;DHT22;6031;50.220;10.122;2023-02-15T06:27:41;-0.30;99.90
11944;DHT22;6031;50.220;10.122;2023-02-15T06:30:08;-0.20;99.90
11944;DHT22;6031;50.220;10.122;2023-02-15T06:32:34;-0.20;99.90
11944;DHT22;6031;50.220;10.122;2023-02-15T06:35:01;-0.20;99.90
11944;DHT22;6031;50.220;10.122;2023-02-15T06:37:27;-0.20;99.90
11944;DHT22;6031;50.220;10.122;2023-02-15T06:39:52;-0.30;99.90
11944;DHT22;6031;50.220;10.122;2023-02-15T06:42:18;-0.30;99.90
11944;DHT22;6031;50.220;10.122;2023-02-15T06:44:44;-0.20;99.90
11944;DHT22;6031;50.220;10.122;2023-02-15T06:47:10;-0.20;99.90
11944;DHT22;6031;50.220;10.122;2023-02-15T06:49:36;-0.20;99.90
11944;DHT22;6031;50.220;10.122;2023-02-15T06:52:02;-0.20;99.90
11944;DHT22;6031;50.220;10.122;2023-02-15T06:54:28;-0.10;99.90
11944;DHT22;6031;50.220;10.122;2023-02-15T06:56:53;0.00;99.90
11944;DHT22;6031;50.220;10.122;2023-02-15T06:59:19;0.00;99.90
11944;DHT22;6031;50.220;10.122;2023-02-15T07:01:44;0.00;99.90
11944;DHT22;6031;50.220;10.122;2023-02-15T07:04:10;0.10;99.90
11944;DHT22;6031;50.220;10.122;2023-02-15T07:06:35;-0.10;99.90
11944;DHT22;6031;50.220;10.122;2023-02-15T07:09:01;0.00;99.90
11944;DHT22;6031;50.220;10.122;2023-02-15T07:11:28;0.10;99.90
11944;DHT22;6031;50.220;10.122;2023-02-15T07:14:26;0.20;99.90
11944;DHT22;6031;50.220;10.122;2023-02-15T07:16:51;0.20;99.90
11944;DHT22;6031;50.220;10.122;2023-02-15T07:19:17;0.10;99.90
11944;DHT22;6031;50.220;10.122;2023-02-15T07:21:42;0.10;99.90
11944;DHT22;6031;50.220;10.122;2023-02-15T07:24:10;0.10;99.90
11944;DHT22;6031;50.220;10.122;2023-02-15T07:26:36;0.10;99.90
11944;DHT22;6031;50.220;10.122;2023-02-15T07:29:01;0.10;99.90
11944;DHT22;6031;50.220;10.122;2023-02-15T07:31:27;0.10;99.90
11944;DHT22;6031;50.220;10.122;2023-02-15T07:33:52;0.20;99.90
11944;DHT22;6031;50.220;10.122;2023-02-15T07:36:18;0.40;99.90
11944;DHT22;6031;50.220;10.122;2023-02-15T07:38:43;0.20;99.90
11944;DHT22;6031;50.220;10.122;2023-02-15T07:41:11;0.20;99.90
11944;DHT22;6031;50.220;10.122;2023-02-15T07:43:40;0.20;99.90
11944;DHT22;6031;50.220;10.122;2023-02-15T07:46:08;0.20;99.90
11944;DHT22;6031;50.220;10.122;2023-02-15T07:48:35;0.30;99.90
11944;DHT22;6031;50.220;10.122;2023-02-15T07:51:01;0.30;99.90
11944;DHT22;6031;50.220;10.122;2023-02-15T07:53:27;0.30;99.90
11944;DHT22;6031;50.220;10.122;2023-02-15T07:55:53;0.30;99.90
11944;DHT22;6031;50.220;10.122;2023-02-15T07:58:20;0.30;99.90
11944;DHT22;6031;50.220;10.122;2023-02-15T08:00:45;0.40;99.90
11944;DHT22;6031;50.220;10.122;2023-02-15T08:03:24;0.40;99.90
11944;DHT22;6031;50.220;10.122;2023-02-15T08:05:56;0.40;99.90
11944;DHT22;6031;50.220;10.122;2023-02-15T08:08:22;0.30;99.90
11944;DHT22;6031;50.220;10.122;2023-02-15T08:11:20;0.30;99.90
11944;DHT22;6031;50.220;10.122;2023-02-15T08:13:59;0.30;99.90
11944;DHT22;6031;50.220;10.122;2023-02-15T08:16:28;0.40;99.90
11944;DHT22;6031;50.220;10.122;2023-02-15T08:18:55;0.30;99.90
11944;DHT22;6031;50.220;10.122;2023-02-15T08:21:21;0.40;99.90
11944;DHT22;6031;50.220;10.122;2023-02-15T08:23:47;0.40;99.90
11944;DHT22;6031;50.220;10.122;2023-02-15T08:26:13;0.40;99.90
11944;DHT22;6031;50.220;10.122;2023-02-15T08:28:41;0.40;99.90
11944;DHT22;6031;50.220;10.122;2023-02-15T08:31:08;0.50;99.90
11944;DHT22;6031;50.220;10.122;2023-02-15T08:33:35;0.50;99.90
11944;DHT22;6031;50.220;10.122;2023-02-15T08:36:07;0.50;99.90
11944;DHT22;6031;50.220;10.122;2023-02-15T08:38:33;0.50;99.90
11944;DHT22;6031;50.220;10.122;2023-02-15T08:41:18;0.60;99.90
11944;DHT22;6031;50.220;10.122;2023-02-15T08:43:46;0.60;99.90
11944;DHT22;6031;50.220;10.122;2023-02-15T08:46:13;0.50;99.90
11944;DHT22;6031;50.220;10.122;2023-02-15T08:48:39;0.60;99.90
11944;DHT22;6031;50.220;10.122;2023-02-15T08:51:09;0.80;99.90
11944;DHT22;6031;50.220;10.122;2023-02-15T08:53:39;0.70;99.90
11944;DHT22;6031;50.220;10.122;2023-02-15T08:56:06;0.70;99.90
11944;DHT22;6031;50.220;10.122;2023-02-15T08:58:32;0.70;99.90
11944;DHT22;6031;50.220;10.122;2023-02-15T09:00:58;0.80;99.90
11944;DHT22;6031;50.220;10.122;2023-02-15T09:03:23;0.90;99.90
11944;DHT22;6031;50.220;10.122;2023-02-15T09:05:49;1.10;99.90
11944;DHT22;6031;50.220;10.122;2023-02-15T09:08:15;1.10;99.90
11944;DHT22;6031;50.220;10.122;2023-02-15T09:10:41;1.20;99.90
11944;DHT22;6031;50.220;10.122;2023-02-15T09:13:06;1.20;99.90
11944;DHT22;6031;50.220;10.122;2023-02-15T09:15:32;1.20;99.90
11944;DHT22;6031;50.220;10.122;2023-02-15T09:17:58;1.10;99.90
11944;DHT22;6031;50.220;10.122;2023-02-15T09:20:31;1.10;99.90
11944;DHT22;6031;50.220;10.122;2023-02-15T09:22:57;1.20;99.90
11944;DHT22;6031;50.220;10.122;2023-02-15T09:25:22;1.20;99.90
11944;DHT22;6031;50.220;10.122;2023-02-15T09:27:48;1.30;99.90
11944;DHT22;6031;50.220;10.122;2023-02-15T09:30:13;1.40;99.90
11944;DHT22;6031;50.220;10.122;2023-02-15T09:32:40;1.40;99.90
11944;DHT22;6031;50.220;10.122;2023-02-15T09:35:05;1.40;99.90
11944;DHT22;6031;50.220;10.122;2023-02-15T09:37:31;1.40;99.30
11944;DHT22;6031;50.220;10.122;2023-02-15T09:39:57;1.40;94.90
11944;DHT22;6031;50.220;10.122;2023-02-15T09:42:58;1.50;99.90
11944;DHT22;6031;50.220;10.122;2023-02-15T09:48:38;1.60;99.90
11944;DHT22;6031;50.220;10.122;2023-02-15T09:51:26;1.60;1.00
11944;DHT22;6031;50.220;10.122;2023-02-15T09:56:58;1.50;1.00
11944;DHT22;6031;50.220;10.122;2023-02-15T09:59:47;1.70;1.00
11944;DHT22;6031;50.220;10.122;2023-02-15T10:02:28;1.60;1.00
11944;DHT22;6031;50.220;10.122;2023-02-15T10:05:25;1.50;1.00
11944;DHT22;6031;50.220;10.122;2023-02-15T10:10:48;1.60;1.00
11944;DHT22;6031;50.220;10.122;2023-02-15T10:13:39;1.70;1.00
11944;DHT22;6031;50.220;10.122;2023-02-15T10:16:30;1.60;1.00
11944;DHT22;6031;50.220;10.122;2023-02-15T10:19:16;1.70;1.00
11944;DHT22;6031;50.220;10.122;2023-02-15T10:24:39;1.90;1.00
11944;DHT22;6031;50.220;10.122;2023-02-15T10:27:20;1.80;1.00
11944;DHT22;6031;50.220;10.122;2023-02-15T10:30:10;1.80;99.90
11944;DHT22;6031;50.220;10.122;2023-02-15T10:38:04;1.70;99.90
11944;DHT22;6031;50.220;10.122;2023-02-15T10:40:44;1.80;99.90
11944;DHT22;6031;50.220;10.122;2023-02-15T10:43:39;2.00;99.90
11944;DHT22;6031;50.220;10.122;2023-02-15T10:46:10;2.10;99.90
11944;DHT22;6031;50.220;10.122;2023-02-15T11:00:14;2.40;1.00
11944;DHT22;6031;50.220;10.122;2023-02-15T11:02:45;2.40;99.90
11944;DHT22;6031;50.220;10.122;2023-02-15T11:07:51;2.40;63.30
11944;DHT22;6031;50.220;10.122;2023-02-15T11:10:34;2.40;1.00
11944;DHT22;6031;50.220;10.122;2023-02-15T11:13:06;2.40;1.00
11944;DHT22;6031;50.220;10.122;2023-02-15T11:15:41;2.50;1.00
11944;DHT22;6031;50.220;10.122;2023-02-15T11:18:36;2.60;1.00
11944;DHT22;6031;50.220;10.122;2023-02-15T11:21:10;2.50;1.00
11944;DHT22;6031;50.220;10.122;2023-02-15T11:23:43;2.50;99.90
11944;DHT22;6031;50.220;10.122;2023-02-15T11:28:52;2.50;99.90
11944;DHT22;6031;50.220;10.122;2023-02-15T11:31:22;2.60;1.00
11944;DHT22;6031;50.220;10.122;2023-02-15T11:33:55;2.50;1.00
11944;DHT22;6031;50.220;10.122;2023-02-15T11:36:31;2.50;1.00
11944;DHT22;6031;50.220;10.122;2023-02-15T11:39:02;2.50;1.00
11944;DHT22;6031;50.220;10.122;2023-02-15T11:41:33;2.30;84.50
11944;DHT22;6031;50.220;10.122;2023-02-15T11:44:10;2.30;99.90
11944;DHT22;6031;50.220;10.122;2023-02-15T11:46:37;2.40;1.00
11944;DHT22;6031;50.220;10.122;2023-02-15T11:49:21;2.50;1.00
11944;DHT22;6031;50.220;10.122;2023-02-15T11:51:47;2.60;1.00
11944;DHT22;6031;50.220;10.122;2023-02-15T11:54:12;2.60;1.00
11944;DHT22;6031;50.220;10.122;2023-02-15T11:56:38;2.60;99.90
11944;DHT22;6031;50.220;10.122;2023-02-15T11:59:09;2.60;99.90
11944;DHT22;6031;50.220;10.122;2023-02-15T12:01:40;2.60;1.00
11944;DHT22;6031;50.220;10.122;2023-02-15T12:07:01;2.60;99.90
11944;DHT22;6031;50.220;10.122;2023-02-15T12:09:36;2.50;1.00
11944;DHT22;6031;50.220;10.122;2023-02-15T12:12:27;2.50;99.90
11944;DHT22;6031;50.220;10.122;2023-02-15T12:14:55;2.50;1.00
11944;DHT22;6031;50.220;10.122;2023-02-15T12:18:15;2.60;1.00
11944;DHT22;6031;50.220;10.122;2023-02-15T12:22:46;2.70;99.90
11944;DHT22;6031;50.220;10.122;2023-02-15T12:25:39;2.80;1.00
11944;DHT22;6031;50.220;10.122;2023-02-15T12:28:40;2.90;99.90
11944;DHT22;6031;50.220;10.122;2023-02-15T12:31:36;3.00;99.90
11944;DHT22;6031;50.220;10.122;2023-02-15T12:34:08;3.10;1.00
11944;DHT22;6031;50.220;10.122;2023-02-15T12:36:50;3.00;99.90
11944;DHT22;6031;50.220;10.122;2023-02-15T12:39:22;3.00;1.00
11944;DHT22;6031;50.220;10.122;2023-02-15T12:44:22;2.90;99.90
11944;DHT22;6031;50.220;10.122;2023-02-15T12:47:04;2.90;1.00
11944;DHT22;6031;50.220;10.122;2023-02-15T12:49:37;2.70;99.90
11944;DHT22;6031;50.220;10.122;2023-02-15T12:52:04;2.60;1.00
11944;DHT22;6031;50.220;10.122;2023-02-15T12:54:38;2.60;99.90
11944;DHT22;6031;50.220;10.122;2023-02-15T12:57:30;2.70;99.90
11944;DHT22;6031;50.220;10.122;2023-02-15T13:02:49;2.40;1.00
11944;DHT22;6031;50.220;10.122;2023-02-15T13:05:34;2.40;1.00
11944;DHT22;6031;50.220;10.122;2023-02-15T13:08:14;2.50;1.00
11944;DHT22;6031;50.220;10.122;2023-02-15T13:10:52;2.60;99.90
11944;DHT22;6031;50.220;10.122;2023-02-15T13:13:20;2.50;99.90
11944;DHT22;6031;50.220;10.122;2023-02-15T13:15:50;2.50;99.90
11944;DHT22;6031;50.220;10.122;2023-02-15T13:18:38;2.40;99.90
11944;DHT22;6031;50.220;10.122;2023-02-15T13:21:19;2.50;1.00
11944;DHT22;6031;50.220;10.122;2023-02-15T13:23:52;2.70;1.00
11944;DHT22;6031;50.220;10.122;2023-02-15T13:26:21;2.80;99.90
11944;DHT22;6031;50.220;10.122;2023-02-15T13:28:52;2.80;1.00
11944;DHT22;6031;50.220;10.122;2023-02-15T13:31:23;2.70;99.90
11944;DHT22;6031;50.220;10.122;2023-02-15T13:33:54;2.70;1.00
11944;DHT22;6031;50.220;10.122;2023-02-15T14:45:35;2.40;99.90
11944;DHT22;6031;50.220;10.122;2023-02-15T14:48:38;2.40;99.90
11944;DHT22;6031;50.220;10.122;2023-02-15T14:51:06;2.30;99.90
11944;DHT22;6031;50.220;10.122;2023-02-15T14:53:36;2.30;99.90
11944;DHT22;6031;50.220;10.122;2023-02-15T14:56:20;2.20;1.00
11944;DHT22;6031;50.220;10.122;2023-02-15T15:01:15;2.00;99.90
11944;DHT22;6031;50.220;10.122;2023-02-15T15:03:51;2.00;1.00
11944;DHT22;6031;50.220;10.122;2023-02-15T15:09:45;2.10;1.00
11944;DHT22;6031;50.220;10.122;2023-02-15T15:14:45;2.20;1.00
11944;DHT22;6031;50.220;10.122;2023-02-15T15:17:13;2.20;1.00
11944;DHT22;6031;50.220;10.122;2023-02-15T15:20:03;2.30;1.00
11944;DHT22;6031;50.220;10.122;2023-02-15T15:22:31;2.20;1.00
11944;DHT22;6031;50.220;10.122;2023-02-15T15:27:39;2.10;1.00
11944;DHT22;6031;50.220;10.122;2023-02-15T15:35:44;2.10;1.00
11944;DHT22;6031;50.220;10.122;2023-02-15T15:38:53;2.00;1.00
11944;DHT22;6031;50.220;10.122;2023-02-15T15:48:05;1.80;1.00
11944;DHT22;6031;50.220;10.122;2023-02-15T15:50:34;1.80;1.00
11944;DHT22;6031;50.220;10.122;2023-02-15T15:53:04;1.70;1.80
11944;DHT22;6031;50.220;10.122;2023-02-15T15:55:32;1.70;51.00
11944;DHT22;6031;50.220;10.122;2023-02-15T15:58:06;1.70;99.90
11944;DHT22;6031;50.220;10.122;2023-02-15T16:00:40;1.80;99.90
11944;DHT22;6031;50.220;10.122;2023-02-15T16:03:15;1.70;99.90
11944;DHT22;6031;50.220;10.122;2023-02-15T16:05:41;1.70;99.90
11944;DHT22;6031;50.220;10.122;2023-02-15T16:08:07;1.60;99.90
11944;DHT22;6031;50.220;10.122;2023-02-15T16:10:33;1.60;99.90
11944;DHT22;6031;50.220;10.122;2023-02-15T16:13:01;1.40;99.90
11944;DHT22;6031;50.220;10.122;2023-02-15T16:15:45;1.40;99.90
11944;DHT22;6031;50.220;10.122;2023-02-15T16:18:16;1.40;99.90
11944;DHT22;6031;50.220;10.122;2023-02-15T16:21:18;1.40;99.90
11944;DHT22;6031;50.220;10.122;2023-02-15T16:24:31;1.30;99.90
11944;DHT22;6031;50.220;10.122;2023-02-15T16:30:28;1.30;99.90
11944;DHT22;6031;50.220;10.122;2023-02-15T16:33:23;1.30;99.90
11944;DHT22;6031;50.220;10.122;2023-02-15T16:39:21;1.20;99.90
11944;DHT22;6031;50.220;10.122;2023-02-15T16:41:47;1.10;99.90
11944;DHT22;6031;50.220;10.122;2023-02-15T16:44:18;1.10;99.90
11944;DHT22;6031;50.220;10.122;2023-02-15T16:46:47;1.10;99.90
11944;DHT22;6031;50.220;10.122;2023-02-15T16:52:58;1.20;99.90
11944;DHT22;6031;50.220;10.122;2023-02-15T16:55:26;1.20;99.90
11944;DHT22;6031;50.220;10.122;2023-02-15T16:57:59;1.20;99.90
11944;DHT22;6031;50.220;10.122;2023-02-15T17:00:28;1.20;99.90
11944;DHT22;6031;50.220;10.122;2023-02-15T17:03:00;1.20;99.90
11944;DHT22;6031;50.220;10.122;2023-02-15T17:05:40;1.30;99.90
11944;DHT22;6031;50.220;10.122;2023-02-15T17:08:17;1.20;99.90
11944;DHT22;6031;50.220;10.122;2023-02-15T17:13:24;1.30;99.90
11944;DHT22;6031;50.220;10.122;2023-02-15T17:16:20;1.30;99.90
11944;DHT22;6031;50.220;10.122;2023-02-15T17:18:47;1.30;99.90
11944;DHT22;6031;50.220;10.122;2023-02-15T17:21:18;1.30;99.90
11944;DHT22;6031;50.220;10.122;2023-02-15T17:23:47;1.30;99.90
11944;DHT22;6031;50.220;10.122;2023-02-15T17:26:17;1.30;99.90
11944;DHT22;6031;50.220;10.122;2023-02-15T17:28:47;1.30;99.90
11944;DHT22;6031;50.220;10.122;2023-02-15T17:31:16;1.30;99.90
11944;DHT22;6031;50.220;10.122;2023-02-15T17:33:42;1.30;99.90
11944;DHT22;6031;50.220;10.122;2023-02-15T17:36:20;1.30;99.90
11944;DHT22;6031;50.220;10.122;2023-02-15T17:44:35;1.20;99.90
11944;DHT22;6031;50.220;10.122;2023-02-15T17:47:00;1.30;99.90
11944;DHT22;6031;50.220;10.122;2023-02-15T17:49:26;1.20;99.90
11944;DHT22;6031;50.220;10.122;2023-02-15T17:52:00;1.10;99.90
11944;DHT22;6031;50.220;10.122;2023-02-15T17:54:26;1.10;99.90
11944;DHT22;6031;50.220;10.122;2023-02-15T17:57:14;1.10;99.90
11944;DHT22;6031;50.220;10.122;2023-02-15T17:59:40;1.10;99.90
11944;DHT22;6031;50.220;10.122;2023-02-15T18:02:24;1.00;99.90
11944;DHT22;6031;50.220;10.122;2023-02-15T18:05:14;1.00;99.90
11944;DHT22;6031;50.220;10.122;2023-02-15T18:07:59;1.00;99.90
11944;DHT22;6031;50.220;10.122;2023-02-15T18:10:43;1.00;99.90
11944;DHT22;6031;50.220;10.122;2023-02-15T18:13:27;1.00;99.90
11944;DHT22;6031;50.220;10.122;2023-02-15T18:15:53;1.10;99.90
11944;DHT22;6031;50.220;10.122;2023-02-15T18:18:19;1.10;99.90
11944;DHT22;6031;50.220;10.122;2023-02-15T18:20:45;1.00;99.90
11944;DHT22;6031;50.220;10.122;2023-02-15T18:23:14;0.90;99.90
11944;DHT22;6031;50.220;10.122;2023-02-15T18:25:40;1.00;99.90
11944;DHT22;6031;50.220;10.122;2023-02-15T18:28:08;0.90;99.90
11944;DHT22;6031;50.220;10.122;2023-02-15T18:30:39;1.00;99.90
11944;DHT22;6031;50.220;10.122;2023-02-15T18:33:21;0.90;99.90
11944;DHT22;6031;50.220;10.122;2023-02-15T18:35:49;0.90;99.90
11944;DHT22;6031;50.220;10.122;2023-02-15T18:38:15;0.90;99.90
11944;DHT22;6031;50.220;10.122;2023-02-15T18:40:41;1.10;99.90
11944;DHT22;6031;50.220;10.122;2023-02-15T18:43:11;1.00;99.90
11944;DHT22;6031;50.220;10.122;2023-02-15T18:45:37;1.10;99.90
11944;DHT22;6031;50.220;10.122;2023-02-15T18:48:04;1.10;99.90
11944;DHT22;6031;50.220;10.122;2023-02-15T18:50:33;1.00;99.90
11944;DHT22;6031;50.220;10.122;2023-02-15T18:53:02;1.00;99.90
11944;DHT22;6031;50.220;10.122;2023-02-15T18:55:28;0.90;99.90
11944;DHT22;6031;50.220;10.122;2023-02-15T18:57:55;0.90;99.90
11944;DHT22;6031;50.220;10.122;2023-02-15T19:00:23;0.90;99.90
11944;DHT22;6031;50.220;10.122;2023-02-15T19:02:50;0.90;99.90
11944;DHT22;6031;50.220;10.122;2023-02-15T19:05:16;0.90;99.90
11944;DHT22;6031;50.220;10.122;2023-02-15T19:07:42;0.90;99.90
11944;DHT22;6031;50.220;10.122;2023-02-15T19:10:20;0.90;99.90
11944;DHT22;6031;50.220;10.122;2023-02-15T19:12:47;0.90;99.90